createdAt,value
2022-11-01T00:00:32.274Z,8.60
2022-11-01T00:05:39.067Z,8.50
2022-11-01T00:10:43.917Z,8.00
2022-11-01T00:15:49.358Z,8.10
2022-11-01T00:20:54.428Z,8.00
2022-11-01T00:26:02.791Z,8.20
2022-11-01T00:31:11.747Z,8.40
2022-11-01T00:36:14.807Z,8.20
2022-11-01T00:41:21.050Z,8.40
2022-11-01T00:46:26.345Z,8.20
2022-11-01T00:51:31.803Z,8.40
2022-11-01T00:56:37.151Z,8.10
2022-11-01T01:01:42.751Z,7.60
2022-11-01T01:06:49.549Z,7.60
2022-11-01T01:11:55.452Z,8.00
2022-11-01T01:17:02.198Z,8.40
2022-11-01T01:22:07.847Z,8.70
2022-11-01T01:27:14.918Z,8.10
2022-11-01T01:32:21.128Z,7.80
2022-11-01T01:37:27.099Z,7.90
2022-11-01T01:42:34.943Z,8.00
2022-11-01T01:47:43.573Z,7.80
2022-11-01T01:53:00.946Z,7.50
2022-11-01T01:58:07.785Z,7.40
2022-11-01T02:03:14.191Z,7.20
2022-11-01T02:15:22.239Z,7.10
2022-11-01T02:20:45.925Z,7.30
2022-11-01T02:26:02.797Z,7.40
2022-11-01T02:31:36.992Z,7.40
2022-11-01T02:36:50.793Z,7.50
2022-11-01T02:42:15.412Z,7.30
2022-11-01T02:47:21.228Z,7.50
2022-11-01T02:52:29.862Z,7.60
2022-11-01T02:57:38.399Z,7.60
2022-11-01T03:02:46.006Z,7.40
2022-11-01T03:08:00.774Z,7.50
2022-11-01T03:13:31.746Z,7.40
2022-11-01T03:18:42.637Z,7.30
2022-11-01T03:24:08.882Z,7.40
2022-11-01T03:29:15.914Z,7.30
2022-11-01T03:34:22.554Z,7.30
2022-11-01T03:39:28.952Z,7.20
2022-11-01T03:44:37.794Z,7.50
2022-11-01T03:49:42.741Z,7.40
2022-11-01T03:54:47.999Z,7.60
2022-11-01T03:59:54.589Z,7.40
2022-11-01T04:04:59.414Z,7.30
2022-11-01T04:10:05.818Z,7.20
2022-11-01T04:15:30.021Z,7.20
2022-11-01T04:20:35.907Z,7.40
2022-11-01T04:25:41.456Z,6.90
2022-11-01T04:30:46.405Z,6.90
2022-11-01T04:35:52.885Z,6.90
2022-11-01T04:40:59.062Z,7.00
2022-11-01T04:46:05.039Z,7.00
2022-11-01T04:51:11.728Z,7.10
2022-11-01T04:56:18.109Z,6.80
2022-11-01T05:01:23.742Z,7.00
2022-11-01T05:06:29.954Z,7.20
2022-11-01T05:11:34.914Z,7.30
2022-11-01T05:16:41.349Z,7.30
2022-11-01T05:21:46.954Z,7.40
2022-11-01T05:26:51.859Z,7.10
2022-11-01T05:31:57.361Z,7.30
2022-11-01T05:37:03.540Z,7.20
2022-11-01T05:42:09.616Z,7.30
2022-11-01T05:47:17.483Z,6.90
2022-11-01T05:52:24.306Z,6.70
2022-11-01T05:57:33.420Z,6.50
2022-11-01T06:02:37.192Z,6.70
2022-11-01T06:07:42.740Z,6.90
2022-11-01T06:13:01.276Z,7.00
2022-11-01T06:18:06.883Z,6.90
2022-11-01T06:23:12.660Z,7.10
2022-11-01T06:28:18.840Z,7.20
2022-11-01T06:33:24.298Z,7.40
2022-11-01T06:38:30.261Z,7.60
2022-11-01T06:43:35.525Z,8.00
2022-11-01T06:48:41.912Z,8.00
2022-11-01T06:53:46.867Z,8.40
2022-11-01T06:58:52.020Z,8.80
2022-11-01T07:03:57.702Z,9.20
2022-11-01T07:09:03.964Z,9.40
2022-11-01T07:14:08.872Z,9.80
2022-11-01T07:19:14.019Z,10.00
2022-11-01T07:24:19.728Z,10.20
2022-11-01T07:29:25.195Z,10.30
2022-11-01T07:34:30.458Z,10.40
2022-11-01T07:39:36.014Z,10.30
2022-11-01T07:44:43.314Z,10.40
2022-11-01T07:49:50.887Z,10.60
2022-11-01T07:54:55.874Z,11.10
2022-11-01T08:00:01.031Z,11.70
2022-11-01T08:05:06.902Z,12.20
2022-11-01T08:10:14.033Z,12.60
2022-11-01T08:15:19.050Z,13.10
2022-11-01T08:20:25.848Z,13.70
2022-11-01T08:25:31.968Z,13.50
2022-11-01T08:30:38.758Z,13.20
2022-11-01T08:35:50.066Z,13.30
2022-11-01T08:40:52.709Z,13.30
2022-11-01T08:46:00.709Z,12.90
2022-11-01T08:51:05.679Z,13.10
2022-11-01T08:56:12.070Z,13.00
2022-11-01T09:01:17.837Z,13.10
2022-11-01T09:06:23.955Z,13.20
2022-11-01T09:11:31.021Z,13.50
2022-11-01T09:16:37.146Z,13.60
2022-11-01T09:21:44.278Z,13.80
2022-11-01T09:26:50.833Z,13.90
2022-11-01T09:31:56.742Z,14.30
2022-11-01T09:37:03.008Z,14.40
2022-11-01T09:42:23.638Z,14.80
2022-11-01T09:47:30.887Z,15.10
2022-11-01T09:52:36.641Z,15.40
2022-11-01T09:57:46.639Z,15.90
2022-11-01T10:08:38.355Z,15.90
2022-11-01T10:13:52.218Z,15.90
2022-11-01T10:19:18.237Z,15.90
2022-11-01T10:24:29.676Z,15.70
2022-11-01T10:30:02.625Z,15.70
2022-11-01T10:35:17.242Z,15.90
2022-11-01T10:40:46.096Z,16.00
2022-11-01T10:45:55.269Z,16.50
2022-11-01T10:51:04.282Z,16.60
2022-11-01T10:56:12.552Z,17.00
2022-11-01T11:01:27.585Z,17.30
2022-11-01T11:06:36.651Z,17.50
2022-11-01T11:11:44.297Z,17.40
2022-11-01T11:17:00.805Z,17.40
2022-11-01T11:22:08.992Z,17.20
2022-11-01T11:27:23.847Z,17.00
2022-11-01T11:32:36.575Z,16.90
2022-11-01T11:37:44.288Z,17.10
2022-11-01T11:42:51.884Z,17.10
2022-11-01T11:48:00.538Z,17.20
2022-11-01T11:53:09.220Z,17.50
2022-11-01T11:58:29.279Z,17.40
2022-11-01T12:03:46.311Z,17.30
2022-11-01T12:09:00.187Z,17.70
2022-11-01T12:14:26.770Z,17.90
2022-11-01T12:19:33.446Z,18.00
2022-11-01T12:24:46.865Z,17.90
2022-11-01T12:29:55.045Z,18.20
2022-11-01T12:35:03.314Z,18.10
2022-11-01T12:40:12.606Z,18.00
2022-11-01T12:45:27.246Z,17.90
2022-11-01T12:50:49.601Z,17.80
2022-11-01T12:55:58.362Z,17.90
2022-11-01T13:01:35.018Z,18.00
2022-11-01T13:07:03.300Z,18.20
2022-11-01T13:12:20.780Z,18.30
2022-11-01T13:17:49.271Z,18.50
2022-11-01T13:23:14.291Z,18.70
2022-11-01T13:28:28.635Z,18.80
2022-11-01T13:33:42.552Z,18.80
2022-11-01T13:38:55.945Z,18.70
2022-11-01T13:44:08.395Z,18.40
2022-11-01T13:49:33.083Z,18.50
2022-11-01T13:54:42.374Z,18.30
2022-11-01T13:59:57.244Z,18.50
2022-11-01T14:05:10.620Z,18.50
2022-11-01T14:10:34.152Z,18.50
2022-11-01T14:15:58.992Z,18.20
2022-11-01T14:21:08.349Z,18.00
2022-11-01T14:26:25.253Z,17.80
2022-11-01T14:31:34.420Z,17.60
2022-11-01T14:36:42.658Z,17.50
2022-11-01T14:41:55.952Z,17.30
2022-11-01T14:47:01.608Z,17.30
2022-11-01T14:52:15.727Z,17.20
2022-11-01T14:57:32.103Z,17.00
2022-11-01T15:02:39.166Z,16.80
2022-11-01T15:07:52.634Z,16.70
2022-11-01T15:13:02.721Z,16.60
2022-11-01T15:18:20.505Z,16.50
2022-11-01T15:23:38.612Z,16.30
2022-11-01T15:28:53.958Z,16.30
2022-11-01T15:34:05.257Z,16.10
2022-11-01T15:39:25.740Z,16.00
2022-11-01T15:44:31.152Z,15.90
2022-11-01T15:49:48.677Z,15.90
2022-11-01T15:55:12.165Z,15.80
2022-11-01T16:00:26.322Z,15.70
2022-11-01T16:05:34.348Z,15.70
2022-11-01T16:10:44.228Z,15.80
2022-11-01T16:16:02.781Z,15.80
2022-11-01T16:21:25.135Z,15.70
2022-11-01T16:26:30.932Z,15.70
2022-11-01T16:31:37.704Z,15.50
2022-11-01T16:36:43.473Z,15.50
2022-11-01T16:41:49.953Z,15.20
2022-11-01T16:46:56.040Z,15.00
2022-11-01T16:52:02.215Z,14.80
2022-11-01T16:57:30.945Z,14.70
2022-11-01T17:02:37.557Z,14.40
2022-11-01T17:07:43.209Z,14.40
2022-11-01T17:12:49.546Z,14.40
2022-11-01T17:17:57.825Z,14.40
2022-11-01T17:23:03.746Z,14.00
2022-11-01T17:28:09.071Z,13.90
2022-11-01T17:33:21.478Z,13.90
2022-11-01T17:38:32.701Z,13.80
2022-11-01T17:43:37.741Z,13.60
2022-11-01T17:48:46.008Z,13.40
2022-11-01T17:53:59.828Z,13.50
2022-11-01T17:59:05.129Z,13.40
2022-11-01T18:04:10.789Z,13.30
2022-11-01T18:09:25.710Z,12.50
2022-11-01T18:14:49.620Z,12.70
2022-11-01T18:20:11.893Z,12.80
2022-11-01T18:25:21.789Z,12.90
2022-11-01T18:30:29.057Z,12.50
2022-11-01T18:35:40.901Z,12.60
2022-11-01T18:40:58.470Z,12.30
2022-11-01T18:51:23.909Z,12.60
2022-11-01T18:56:31.199Z,12.70
2022-11-01T19:01:41.130Z,12.50
2022-11-01T19:06:49.842Z,12.60
2022-11-01T19:11:58.458Z,12.70
2022-11-01T19:17:04.917Z,12.70
2022-11-01T19:22:29.342Z,12.50
2022-11-01T19:27:35.978Z,12.50
2022-11-01T19:32:41.916Z,12.50
2022-11-01T19:37:49.666Z,12.30
2022-11-01T19:43:04.208Z,12.60
2022-11-01T19:48:13.665Z,12.50
2022-11-01T19:53:35.242Z,12.10
2022-11-01T19:59:03.688Z,12.10
2022-11-01T20:04:32.738Z,12.10
2022-11-01T20:09:41.803Z,12.00
2022-11-01T20:14:46.774Z,11.80
2022-11-01T20:19:57.626Z,11.90
2022-11-01T20:25:04.050Z,11.70
2022-11-01T20:30:11.784Z,11.40
2022-11-01T20:35:18.064Z,11.20
2022-11-01T20:40:25.694Z,11.10
2022-11-01T20:45:30.605Z,11.40
2022-11-01T20:50:36.086Z,11.20
2022-11-01T20:55:44.518Z,11.40
2022-11-01T21:00:51.410Z,11.40
2022-11-01T21:05:58.069Z,11.30
2022-11-01T21:11:06.753Z,11.40
2022-11-01T21:16:14.919Z,11.40
2022-11-01T21:21:45.301Z,10.80
2022-11-01T21:26:46.059Z,10.90
2022-11-01T21:31:51.625Z,10.80
2022-11-01T21:37:01.179Z,10.60
2022-11-01T21:42:32.344Z,11.00
2022-11-01T21:47:45.433Z,10.40
2022-11-01T21:52:49.006Z,9.80
2022-11-01T21:57:54.462Z,9.90
2022-11-01T22:02:59.945Z,10.00
2022-11-01T22:08:05.281Z,10.10
2022-11-01T22:13:10.747Z,10.10
2022-11-01T22:18:18.791Z,9.90
2022-11-01T22:23:22.694Z,9.70
2022-11-01T22:28:28.826Z,9.60
2022-11-01T22:33:36.401Z,9.10
2022-11-01T22:38:43.546Z,9.20
2022-11-01T22:43:51.092Z,9.10
2022-11-01T22:49:05.150Z,9.30
2022-11-01T22:54:31.140Z,9.40
2022-11-01T22:59:37.885Z,9.40
2022-11-01T23:04:43.449Z,9.50
2022-11-01T23:09:49.768Z,8.90
2022-11-01T23:14:55.496Z,8.60
2022-11-01T23:20:04.013Z,8.90
2022-11-01T23:25:10.504Z,8.90
2022-11-01T23:30:15.372Z,9.00
2022-11-01T23:35:22.715Z,9.20
2022-11-01T23:40:31.100Z,9.20
2022-11-01T23:45:36.154Z,9.40
2022-11-01T23:50:43.864Z,9.50
2022-11-01T23:55:52.400Z,9.40
